sensor_id;sensor_type;location;lat;lon;timestamp;P1;durP1;ratioP1;P2;durP2;ratioP2
32932;SDS011;19444;50.518;10.870;2022-10-31T00:00:58;12.25;;;5.95;;
32932;SDS011;19444;50.518;10.870;2022-10-31T00:03:56;10.50;;;5.72;;
32932;SDS011;19444;50.518;10.870;2022-10-31T00:06:53;13.90;;;6.07;;
32932;SDS011;19444;50.518;10.870;2022-10-31T00:09:50;9.80;;;5.80;;
32932;SDS011;19444;50.518;10.870;2022-10-31T00:12:47;11.20;;;5.85;;
32932;SDS011;19444;50.518;10.870;2022-10-31T00:15:44;14.98;;;6.40;;
32932;SDS011;19444;50.518;10.870;2022-10-31T00:18:40;10.82;;;5.57;;
32932;SDS011;19444;50.518;10.870;2022-10-31T00:21:37;9.40;;;5.20;;
32932;SDS011;19444;50.518;10.870;2022-10-31T00:24:34;9.23;;;5.30;;
32932;SDS011;19444;50.518;10.870;2022-10-31T00:27:31;9.30;;;5.55;;
32932;SDS011;19444;50.518;10.870;2022-10-31T00:30:28;12.40;;;5.18;;
32932;SDS011;19444;50.518;10.870;2022-10-31T00:33:25;9.68;;;5.38;;
32932;SDS011;19444;50.518;10.870;2022-10-31T00:36:22;12.40;;;5.22;;
32932;SDS011;19444;50.518;10.870;2022-10-31T00:39:19;10.68;;;6.57;;
32932;SDS011;19444;50.518;10.870;2022-10-31T00:42:16;9.98;;;5.05;;
32932;SDS011;19444;50.518;10.870;2022-10-31T00:45:13;10.55;;;4.32;;
32932;SDS011;19444;50.518;10.870;2022-10-31T00:48:10;14.60;;;5.07;;
32932;SDS011;19444;50.518;10.870;2022-10-31T00:51:07;11.70;;;5.07;;
32932;SDS011;19444;50.518;10.870;2022-10-31T00:54:04;10.02;;;4.25;;
32932;SDS011;19444;50.518;10.870;2022-10-31T00:57:01;9.45;;;4.38;;
32932;SDS011;19444;50.518;10.870;2022-10-31T00:59:58;11.43;;;5.40;;
32932;SDS011;19444;50.518;10.870;2022-10-31T01:02:55;10.05;;;4.72;;
32932;SDS011;19444;50.518;10.870;2022-10-31T01:05:57;10.90;;;4.90;;
32932;SDS011;19444;50.518;10.870;2022-10-31T01:09:00;11.57;;;4.40;;
32932;SDS011;19444;50.518;10.870;2022-10-31T01:11:56;10.32;;;4.15;;
32932;SDS011;19444;50.518;10.870;2022-10-31T01:14:53;7.43;;;4.47;;
32932;SDS011;19444;50.518;10.870;2022-10-31T01:17:50;8.35;;;4.70;;
32932;SDS011;19444;50.518;10.870;2022-10-31T01:20:47;9.40;;;4.50;;
32932;SDS011;19444;50.518;10.870;2022-10-31T01:23:53;9.18;;;4.75;;
32932;SDS011;19444;50.518;10.870;2022-10-31T01:26:51;9.82;;;5.13;;
32932;SDS011;19444;50.518;10.870;2022-10-31T01:29:48;10.35;;;5.63;;
32932;SDS011;19444;50.518;10.870;2022-10-31T01:32:44;12.02;;;4.72;;
32932;SDS011;19444;50.518;10.870;2022-10-31T01:35:41;8.60;;;4.03;;
32932;SDS011;19444;50.518;10.870;2022-10-31T01:38:38;11.68;;;3.78;;
32932;SDS011;19444;50.518;10.870;2022-10-31T01:41:36;9.32;;;3.50;;
32932;SDS011;19444;50.518;10.870;2022-10-31T01:47:35;8.93;;;3.85;;
32932;SDS011;19444;50.518;10.870;2022-10-31T01:50:42;7.10;;;3.47;;
32932;SDS011;19444;50.518;10.870;2022-10-31T01:53:43;9.23;;;4.40;;
32932;SDS011;19444;50.518;10.870;2022-10-31T01:56:42;9.82;;;4.07;;
32932;SDS011;19444;50.518;10.870;2022-10-31T01:59:46;7.90;;;4.40;;
32932;SDS011;19444;50.518;10.870;2022-10-31T02:02:48;8.75;;;4.05;;
32932;SDS011;19444;50.518;10.870;2022-10-31T02:05:46;7.93;;;4.00;;
32932;SDS011;19444;50.518;10.870;2022-10-31T02:08:44;11.50;;;4.00;;
32932;SDS011;19444;50.518;10.870;2022-10-31T02:11:42;8.88;;;3.70;;
32932;SDS011;19444;50.518;10.870;2022-10-31T02:14:40;8.57;;;3.42;;
32932;SDS011;19444;50.518;10.870;2022-10-31T02:17:37;10.05;;;3.97;;
32932;SDS011;19444;50.518;10.870;2022-10-31T02:20:40;9.85;;;4.10;;
32932;SDS011;19444;50.518;10.870;2022-10-31T02:27:07;7.72;;;3.78;;
32932;SDS011;19444;50.518;10.870;2022-10-31T02:34:26;11.48;;;3.90;;
32932;SDS011;19444;50.518;10.870;2022-10-31T02:44:10;7.20;;;4.07;;
32932;SDS011;19444;50.518;10.870;2022-10-31T02:47:28;7.65;;;3.80;;
32932;SDS011;19444;50.518;10.870;2022-10-31T02:50:33;9.60;;;4.45;;
32932;SDS011;19444;50.518;10.870;2022-10-31T02:53:33;11.13;;;3.85;;
32932;SDS011;19444;50.518;10.870;2022-10-31T02:56:32;7.85;;;3.90;;
32932;SDS011;19444;50.518;10.870;2022-10-31T02:59:29;11.25;;;4.68;;
32932;SDS011;19444;50.518;10.870;2022-10-31T03:09:17;9.95;;;4.35;;
32932;SDS011;19444;50.518;10.870;2022-10-31T03:12:32;9.55;;;3.75;;
32932;SDS011;19444;50.518;10.870;2022-10-31T03:15:43;9.98;;;3.92;;
32932;SDS011;19444;50.518;10.870;2022-10-31T03:18:53;8.63;;;3.95;;
32932;SDS011;19444;50.518;10.870;2022-10-31T03:22:01;8.95;;;4.28;;
32932;SDS011;19444;50.518;10.870;2022-10-31T03:25:06;8.52;;;3.85;;
32932;SDS011;19444;50.518;10.870;2022-10-31T03:28:05;9.93;;;4.00;;
32932;SDS011;19444;50.518;10.870;2022-10-31T03:31:04;9.73;;;4.00;;
32932;SDS011;19444;50.518;10.870;2022-10-31T03:34:02;10.32;;;4.97;;
32932;SDS011;19444;50.518;10.870;2022-10-31T03:37:03;11.13;;;4.05;;
32932;SDS011;19444;50.518;10.870;2022-10-31T03:40:05;11.55;;;4.60;;
32932;SDS011;19444;50.518;10.870;2022-10-31T03:43:05;9.48;;;4.13;;
32932;SDS011;19444;50.518;10.870;2022-10-31T03:46:09;22.38;;;5.75;;
32932;SDS011;19444;50.518;10.870;2022-10-31T03:49:06;12.23;;;4.90;;
32932;SDS011;19444;50.518;10.870;2022-10-31T03:55:32;9.88;;;3.72;;
32932;SDS011;19444;50.518;10.870;2022-10-31T03:58:48;6.82;;;3.88;;
32932;SDS011;19444;50.518;10.870;2022-10-31T04:02:05;7.72;;;4.25;;
32932;SDS011;19444;50.518;10.870;2022-10-31T04:05:07;6.75;;;3.95;;
32932;SDS011;19444;50.518;10.870;2022-10-31T04:08:07;10.93;;;3.92;;
32932;SDS011;19444;50.518;10.870;2022-10-31T04:11:09;9.77;;;3.78;;
32932;SDS011;19444;50.518;10.870;2022-10-31T04:14:08;12.13;;;3.67;;
32932;SDS011;19444;50.518;10.870;2022-10-31T04:17:07;8.50;;;3.70;;
32932;SDS011;19444;50.518;10.870;2022-10-31T04:20:10;8.93;;;4.00;;
32932;SDS011;19444;50.518;10.870;2022-10-31T04:23:20;11.88;;;4.13;;
32932;SDS011;19444;50.518;10.870;2022-10-31T04:26:21;8.90;;;4.07;;
32932;SDS011;19444;50.518;10.870;2022-10-31T04:29:18;11.57;;;4.05;;
32932;SDS011;19444;50.518;10.870;2022-10-31T04:32:16;8.45;;;4.40;;
32932;SDS011;19444;50.518;10.870;2022-10-31T04:35:13;8.98;;;3.80;;
32932;SDS011;19444;50.518;10.870;2022-10-31T04:38:10;9.00;;;4.05;;
32932;SDS011;19444;50.518;10.870;2022-10-31T04:41:07;8.35;;;4.18;;
32932;SDS011;19444;50.518;10.870;2022-10-31T04:44:04;13.82;;;4.55;;
32932;SDS011;19444;50.518;10.870;2022-10-31T04:47:01;7.60;;;4.03;;
32932;SDS011;19444;50.518;10.870;2022-10-31T04:49:58;9.15;;;3.72;;
32932;SDS011;19444;50.518;10.870;2022-10-31T04:52:55;8.35;;;3.85;;
32932;SDS011;19444;50.518;10.870;2022-10-31T04:55:51;6.40;;;3.35;;
32932;SDS011;19444;50.518;10.870;2022-10-31T04:58:48;6.63;;;3.17;;
32932;SDS011;19444;50.518;10.870;2022-10-31T05:01:45;9.25;;;3.67;;
32932;SDS011;19444;50.518;10.870;2022-10-31T05:04:42;7.90;;;3.72;;
32932;SDS011;19444;50.518;10.870;2022-10-31T05:07:43;8.20;;;4.28;;
32932;SDS011;19444;50.518;10.870;2022-10-31T05:10:41;9.65;;;3.83;;
32932;SDS011;19444;50.518;10.870;2022-10-31T05:13:38;9.95;;;4.38;;
32932;SDS011;19444;50.518;10.870;2022-10-31T05:16:35;8.80;;;3.47;;
32932;SDS011;19444;50.518;10.870;2022-10-31T05:19:32;8.40;;;5.35;;
32932;SDS011;19444;50.518;10.870;2022-10-31T05:22:29;10.13;;;3.72;;
32932;SDS011;19444;50.518;10.870;2022-10-31T05:25:26;9.70;;;4.28;;
32932;SDS011;19444;50.518;10.870;2022-10-31T05:28:24;9.52;;;4.28;;
32932;SDS011;19444;50.518;10.870;2022-10-31T05:31:21;10.23;;;4.43;;
32932;SDS011;19444;50.518;10.870;2022-10-31T05:34:18;8.82;;;4.40;;
32932;SDS011;19444;50.518;10.870;2022-10-31T05:37:14;9.40;;;3.83;;
32932;SDS011;19444;50.518;10.870;2022-10-31T05:40:12;8.68;;;3.90;;
32932;SDS011;19444;50.518;10.870;2022-10-31T05:43:11;11.60;;;4.57;;
32932;SDS011;19444;50.518;10.870;2022-10-31T05:46:08;8.65;;;4.57;;
32932;SDS011;19444;50.518;10.870;2022-10-31T05:49:04;8.77;;;3.90;;
32932;SDS011;19444;50.518;10.870;2022-10-31T05:52:01;10.55;;;3.60;;
32932;SDS011;19444;50.518;10.870;2022-10-31T05:54:58;13.95;;;4.22;;
32932;SDS011;19444;50.518;10.870;2022-10-31T05:57:55;10.70;;;4.60;;
32932;SDS011;19444;50.518;10.870;2022-10-31T06:00:53;7.05;;;3.78;;
32932;SDS011;19444;50.518;10.870;2022-10-31T06:03:50;10.35;;;4.18;;
32932;SDS011;19444;50.518;10.870;2022-10-31T06:06:47;9.90;;;3.55;;
32932;SDS011;19444;50.518;10.870;2022-10-31T06:09:44;9.90;;;3.30;;
32932;SDS011;19444;50.518;10.870;2022-10-31T06:12:41;10.32;;;4.10;;
32932;SDS011;19444;50.518;10.870;2022-10-31T06:15:37;9.10;;;3.78;;
32932;SDS011;19444;50.518;10.870;2022-10-31T06:18:34;10.40;;;4.65;;
32932;SDS011;19444;50.518;10.870;2022-10-31T06:21:31;10.60;;;4.63;;
32932;SDS011;19444;50.518;10.870;2022-10-31T06:24:28;10.75;;;3.80;;
32932;SDS011;19444;50.518;10.870;2022-10-31T06:27:25;7.28;;;3.55;;
32932;SDS011;19444;50.518;10.870;2022-10-31T06:30:22;11.13;;;3.67;;
32932;SDS011;19444;50.518;10.870;2022-10-31T06:33:19;6.93;;;2.85;;
32932;SDS011;19444;50.518;10.870;2022-10-31T06:36:16;7.13;;;3.53;;
32932;SDS011;19444;50.518;10.870;2022-10-31T06:39:13;8.68;;;3.40;;
32932;SDS011;19444;50.518;10.870;2022-10-31T06:42:11;7.97;;;3.90;;
32932;SDS011;19444;50.518;10.870;2022-10-31T06:45:08;8.23;;;3.63;;
32932;SDS011;19444;50.518;10.870;2022-10-31T06:48:05;8.68;;;3.67;;
32932;SDS011;19444;50.518;10.870;2022-10-31T06:51:18;6.72;;;3.33;;
32932;SDS011;19444;50.518;10.870;2022-10-31T06:54:15;8.15;;;3.25;;
32932;SDS011;19444;50.518;10.870;2022-10-31T06:57:12;10.15;;;3.72;;
32932;SDS011;19444;50.518;10.870;2022-10-31T07:00:09;8.23;;;3.92;;
32932;SDS011;19444;50.518;10.870;2022-10-31T07:03:09;7.72;;;3.35;;
32932;SDS011;19444;50.518;10.870;2022-10-31T07:06:08;9.30;;;3.65;;
32932;SDS011;19444;50.518;10.870;2022-10-31T07:09:05;9.27;;;3.67;;
32932;SDS011;19444;50.518;10.870;2022-10-31T07:12:02;12.63;;;4.18;;
32932;SDS011;19444;50.518;10.870;2022-10-31T07:14:59;6.57;;;3.65;;
32932;SDS011;19444;50.518;10.870;2022-10-31T07:18:03;10.88;;;3.58;;
32932;SDS011;19444;50.518;10.870;2022-10-31T07:21:02;7.10;;;3.60;;
32932;SDS011;19444;50.518;10.870;2022-10-31T07:23:59;9.35;;;4.22;;
32932;SDS011;19444;50.518;10.870;2022-10-31T07:26:56;9.63;;;4.32;;
32932;SDS011;19444;50.518;10.870;2022-10-31T07:29:58;10.32;;;4.00;;
32932;SDS011;19444;50.518;10.870;2022-10-31T07:32:54;10.57;;;4.20;;
32932;SDS011;19444;50.518;10.870;2022-10-31T07:35:52;65.35;;;17.25;;
32932;SDS011;19444;50.518;10.870;2022-10-31T07:38:49;7.07;;;3.42;;
32932;SDS011;19444;50.518;10.870;2022-10-31T07:41:46;7.03;;;3.10;;
32932;SDS011;19444;50.518;10.870;2022-10-31T07:44:43;5.32;;;2.88;;
32932;SDS011;19444;50.518;10.870;2022-10-31T07:50:48;5.78;;;3.03;;
32932;SDS011;19444;50.518;10.870;2022-10-31T07:53:45;6.57;;;3.30;;
32932;SDS011;19444;50.518;10.870;2022-10-31T07:56:42;7.32;;;3.17;;
32932;SDS011;19444;50.518;10.870;2022-10-31T07:59:39;6.55;;;3.30;;
32932;SDS011;19444;50.518;10.870;2022-10-31T08:02:36;6.55;;;2.90;;
32932;SDS011;19444;50.518;10.870;2022-10-31T08:05:33;7.40;;;3.05;;
32932;SDS011;19444;50.518;10.870;2022-10-31T08:08:30;9.63;;;3.35;;
32932;SDS011;19444;50.518;10.870;2022-10-31T08:11:33;6.15;;;2.63;;
32932;SDS011;19444;50.518;10.870;2022-10-31T08:14:30;7.88;;;3.65;;
32932;SDS011;19444;50.518;10.870;2022-10-31T08:17:27;5.35;;;2.70;;
32932;SDS011;19444;50.518;10.870;2022-10-31T08:20:24;7.80;;;3.60;;
32932;SDS011;19444;50.518;10.870;2022-10-31T08:23:21;9.15;;;3.55;;
32932;SDS011;19444;50.518;10.870;2022-10-31T08:26:18;5.85;;;3.13;;
32932;SDS011;19444;50.518;10.870;2022-10-31T08:29:14;7.68;;;3.33;;
32932;SDS011;19444;50.518;10.870;2022-10-31T08:32:11;8.23;;;4.00;;
32932;SDS011;19444;50.518;10.870;2022-10-31T08:35:08;16.15;;;4.90;;
32932;SDS011;19444;50.518;10.870;2022-10-31T08:38:05;12.95;;;4.68;;
32932;SDS011;19444;50.518;10.870;2022-10-31T08:41:03;9.50;;;3.70;;
32932;SDS011;19444;50.518;10.870;2022-10-31T08:44:00;8.05;;;3.92;;
32932;SDS011;19444;50.518;10.870;2022-10-31T08:46:57;10.38;;;3.88;;
32932;SDS011;19444;50.518;10.870;2022-10-31T08:49:54;9.23;;;3.80;;
32932;SDS011;19444;50.518;10.870;2022-10-31T08:52:51;8.27;;;3.67;;
32932;SDS011;19444;50.518;10.870;2022-10-31T08:56:00;6.57;;;3.53;;
32932;SDS011;19444;50.518;10.870;2022-10-31T08:58:57;8.15;;;3.53;;
32932;SDS011;19444;50.518;10.870;2022-10-31T09:01:54;8.00;;;3.75;;
32932;SDS011;19444;50.518;10.870;2022-10-31T09:04:51;10.65;;;4.88;;
32932;SDS011;19444;50.518;10.870;2022-10-31T09:07:48;11.35;;;4.45;;
32932;SDS011;19444;50.518;10.870;2022-10-31T09:10:45;7.88;;;4.00;;
32932;SDS011;19444;50.518;10.870;2022-10-31T09:13:41;11.75;;;4.78;;
32932;SDS011;19444;50.518;10.870;2022-10-31T09:16:38;9.23;;;4.28;;
32932;SDS011;19444;50.518;10.870;2022-10-31T09:19:35;8.77;;;3.33;;
32932;SDS011;19444;50.518;10.870;2022-10-31T09:22:32;11.18;;;3.13;;
32932;SDS011;19444;50.518;10.870;2022-10-31T09:25:29;8.25;;;2.47;;
32932;SDS011;19444;50.518;10.870;2022-10-31T09:28:26;5.03;;;2.40;;
32932;SDS011;19444;50.518;10.870;2022-10-31T09:31:23;4.95;;;2.53;;
32932;SDS011;19444;50.518;10.870;2022-10-31T09:34:20;7.22;;;2.55;;
32932;SDS011;19444;50.518;10.870;2022-10-31T09:37:17;4.88;;;2.33;;
32932;SDS011;19444;50.518;10.870;2022-10-31T09:40:14;6.43;;;3.05;;
32932;SDS011;19444;50.518;10.870;2022-10-31T09:49:52;6.85;;;2.67;;
32932;SDS011;19444;50.518;10.870;2022-10-31T09:56:30;6.90;;;2.47;;
32932;SDS011;19444;50.518;10.870;2022-10-31T09:59:35;6.50;;;3.00;;
32932;SDS011;19444;50.518;10.870;2022-10-31T10:02:39;8.10;;;2.70;;
32932;SDS011;19444;50.518;10.870;2022-10-31T10:05:52;8.57;;;3.03;;
32932;SDS011;19444;50.518;10.870;2022-10-31T10:09:20;6.07;;;2.72;;
32932;SDS011;19444;50.518;10.870;2022-10-31T10:13:05;7.18;;;2.33;;
32932;SDS011;19444;50.518;10.870;2022-10-31T10:16:19;9.95;;;2.83;;
32932;SDS011;19444;50.518;10.870;2022-10-31T10:20:04;6.40;;;2.65;;
32932;SDS011;19444;50.518;10.870;2022-10-31T10:23:35;6.07;;;2.22;;
32932;SDS011;19444;50.518;10.870;2022-10-31T10:26:46;5.15;;;2.17;;
32932;SDS011;19444;50.518;10.870;2022-10-31T10:30:19;6.82;;;2.80;;
32932;SDS011;19444;50.518;10.870;2022-10-31T10:33:47;10.43;;;2.45;;
32932;SDS011;19444;50.518;10.870;2022-10-31T10:40:48;5.00;;;2.45;;
32932;SDS011;19444;50.518;10.870;2022-10-31T10:43:51;8.35;;;2.85;;
32932;SDS011;19444;50.518;10.870;2022-10-31T10:46:51;9.70;;;2.90;;
32932;SDS011;19444;50.518;10.870;2022-10-31T10:50:16;8.20;;;2.95;;
32932;SDS011;19444;50.518;10.870;2022-10-31T10:53:34;8.20;;;2.65;;
32932;SDS011;19444;50.518;10.870;2022-10-31T11:00:20;9.40;;;2.97;;
32932;SDS011;19444;50.518;10.870;2022-10-31T11:03:20;8.68;;;3.05;;
32932;SDS011;19444;50.518;10.870;2022-10-31T11:06:21;7.65;;;2.72;;
32932;SDS011;19444;50.518;10.870;2022-10-31T11:09:22;7.28;;;2.60;;
32932;SDS011;19444;50.518;10.870;2022-10-31T11:15:27;5.35;;;2.53;;
32932;SDS011;19444;50.518;10.870;2022-10-31T11:18:31;7.50;;;3.13;;
32932;SDS011;19444;50.518;10.870;2022-10-31T11:21:32;5.95;;;2.40;;
32932;SDS011;19444;50.518;10.870;2022-10-31T11:24:35;10.13;;;2.83;;
32932;SDS011;19444;50.518;10.870;2022-10-31T11:27:37;7.53;;;3.28;;
32932;SDS011;19444;50.518;10.870;2022-10-31T11:34:19;8.77;;;3.08;;
32932;SDS011;19444;50.518;10.870;2022-10-31T11:37:40;7.95;;;2.33;;
32932;SDS011;19444;50.518;10.870;2022-10-31T11:40:40;5.78;;;2.60;;
32932;SDS011;19444;50.518;10.870;2022-10-31T11:44:15;8.13;;;2.78;;
32932;SDS011;19444;50.518;10.870;2022-10-31T11:47:16;7.53;;;2.17;;
32932;SDS011;19444;50.518;10.870;2022-10-31T11:50:31;9.88;;;3.00;;
32932;SDS011;19444;50.518;10.870;2022-10-31T11:53:35;10.52;;;2.60;;
32932;SDS011;19444;50.518;10.870;2022-10-31T11:56:38;9.32;;;2.30;;
32932;SDS011;19444;50.518;10.870;2022-10-31T11:59:37;6.40;;;2.30;;
32932;SDS011;19444;50.518;10.870;2022-10-31T12:02:35;9.32;;;2.88;;
32932;SDS011;19444;50.518;10.870;2022-10-31T12:05:32;8.77;;;2.58;;
32932;SDS011;19444;50.518;10.870;2022-10-31T12:08:30;7.95;;;2.35;;
32932;SDS011;19444;50.518;10.870;2022-10-31T12:18:36;8.77;;;2.38;;
32932;SDS011;19444;50.518;10.870;2022-10-31T12:22:05;8.57;;;2.30;;
32932;SDS011;19444;50.518;10.870;2022-10-31T12:32:30;9.50;;;2.50;;
32932;SDS011;19444;50.518;10.870;2022-10-31T12:45:57;6.70;;;2.00;;
32932;SDS011;19444;50.518;10.870;2022-10-31T12:49:01;6.35;;;2.03;;
32932;SDS011;19444;50.518;10.870;2022-10-31T12:55:58;9.30;;;2.20;;
32932;SDS011;19444;50.518;10.870;2022-10-31T12:59:24;7.57;;;3.33;;
32932;SDS011;19444;50.518;10.870;2022-10-31T13:05:53;9.45;;;2.10;;
32932;SDS011;19444;50.518;10.870;2022-10-31T13:08:56;7.68;;;1.85;;
32932;SDS011;19444;50.518;10.870;2022-10-31T13:11:58;9.30;;;2.13;;
32932;SDS011;19444;50.518;10.870;2022-10-31T13:15:14;15.32;;;3.40;;
32932;SDS011;19444;50.518;10.870;2022-10-31T13:18:51;9.93;;;2.90;;
32932;SDS011;19444;50.518;10.870;2022-10-31T13:22:17;7.55;;;2.17;;
32932;SDS011;19444;50.518;10.870;2022-10-31T13:25:40;5.82;;;2.55;;
32932;SDS011;19444;50.518;10.870;2022-10-31T13:32:26;10.23;;;2.35;;
32932;SDS011;19444;50.518;10.870;2022-10-31T13:38:49;6.47;;;2.10;;
32932;SDS011;19444;50.518;10.870;2022-10-31T13:45:18;8.55;;;2.40;;
32932;SDS011;19444;50.518;10.870;2022-10-31T13:48:19;7.68;;;2.42;;
32932;SDS011;19444;50.518;10.870;2022-10-31T13:51:35;7.97;;;2.40;;
32932;SDS011;19444;50.518;10.870;2022-10-31T13:54:33;12.15;;;2.42;;
32932;SDS011;19444;50.518;10.870;2022-10-31T13:57:43;7.93;;;2.42;;
32932;SDS011;19444;50.518;10.870;2022-10-31T14:00:40;6.15;;;2.70;;
32932;SDS011;19444;50.518;10.870;2022-10-31T14:03:39;10.15;;;3.58;;
32932;SDS011;19444;50.518;10.870;2022-10-31T14:07:06;5.75;;;2.65;;
32932;SDS011;19444;50.518;10.870;2022-10-31T14:10:24;10.52;;;2.60;;
32932;SDS011;19444;50.518;10.870;2022-10-31T14:13:25;9.63;;;2.90;;
32932;SDS011;19444;50.518;10.870;2022-10-31T14:16:38;10.38;;;3.85;;
32932;SDS011;19444;50.518;10.870;2022-10-31T14:19:40;27.65;;;12.13;;
32932;SDS011;19444;50.518;10.870;2022-10-31T14:22:37;42.63;;;21.55;;
32932;SDS011;19444;50.518;10.870;2022-10-31T14:25:38;16.70;;;7.38;;
32932;SDS011;19444;50.518;10.870;2022-10-31T14:28:36;65.68;;;31.00;;
32932;SDS011;19444;50.518;10.870;2022-10-31T14:34:34;23.67;;;9.85;;
32932;SDS011;19444;50.518;10.870;2022-10-31T14:37:52;71.47;;;26.85;;
32932;SDS011;19444;50.518;10.870;2022-10-31T14:48:05;57.00;;;19.17;;
32932;SDS011;19444;50.518;10.870;2022-10-31T14:51:35;35.65;;;14.02;;
32932;SDS011;19444;50.518;10.870;2022-10-31T14:54:37;28.17;;;11.18;;
32932;SDS011;19444;50.518;10.870;2022-10-31T14:57:38;98.05;;;32.50;;
32932;SDS011;19444;50.518;10.870;2022-10-31T15:00:50;48.17;;;17.65;;
32932;SDS011;19444;50.518;10.870;2022-10-31T15:03:53;54.25;;;19.67;;
32932;SDS011;19444;50.518;10.870;2022-10-31T15:07:21;28.02;;;12.27;;
32932;SDS011;19444;50.518;10.870;2022-10-31T15:13:25;61.00;;;21.50;;
32932;SDS011;19444;50.518;10.870;2022-10-31T15:16:23;31.38;;;16.50;;
32932;SDS011;19444;50.518;10.870;2022-10-31T15:19:32;35.60;;;12.18;;
32932;SDS011;19444;50.518;10.870;2022-10-31T15:22:30;58.03;;;20.48;;
32932;SDS011;19444;50.518;10.870;2022-10-31T15:25:28;18.67;;;8.73;;
32932;SDS011;19444;50.518;10.870;2022-10-31T15:28:30;20.08;;;8.93;;
32932;SDS011;19444;50.518;10.870;2022-10-31T15:31:27;16.45;;;6.65;;
32932;SDS011;19444;50.518;10.870;2022-10-31T15:34:35;31.88;;;13.70;;
32932;SDS011;19444;50.518;10.870;2022-10-31T15:37:38;30.80;;;11.40;;
32932;SDS011;19444;50.518;10.870;2022-10-31T15:40:37;28.25;;;13.68;;
32932;SDS011;19444;50.518;10.870;2022-10-31T15:43:37;57.80;;;26.13;;
32932;SDS011;19444;50.518;10.870;2022-10-31T15:46:40;55.03;;;25.00;;
32932;SDS011;19444;50.518;10.870;2022-10-31T15:52:46;22.27;;;11.05;;
32932;SDS011;19444;50.518;10.870;2022-10-31T15:55:51;19.60;;;10.80;;
32932;SDS011;19444;50.518;10.870;2022-10-31T15:58:58;15.10;;;4.78;;
32932;SDS011;19444;50.518;10.870;2022-10-31T16:02:02;39.00;;;15.07;;
32932;SDS011;19444;50.518;10.870;2022-10-31T16:05:17;45.75;;;15.05;;
32932;SDS011;19444;50.518;10.870;2022-10-31T16:11:33;33.35;;;15.48;;
32932;SDS011;19444;50.518;10.870;2022-10-31T16:14:35;14.05;;;6.50;;
32932;SDS011;19444;50.518;10.870;2022-10-31T16:17:40;14.27;;;7.75;;
32932;SDS011;19444;50.518;10.870;2022-10-31T16:20:39;32.88;;;17.42;;
32932;SDS011;19444;50.518;10.870;2022-10-31T16:23:36;33.72;;;17.38;;
32932;SDS011;19444;50.518;10.870;2022-10-31T16:26:40;20.65;;;10.65;;
32932;SDS011;19444;50.518;10.870;2022-10-31T16:29:39;17.55;;;8.00;;
32932;SDS011;19444;50.518;10.870;2022-10-31T16:32:56;30.17;;;13.50;;
32932;SDS011;19444;50.518;10.870;2022-10-31T16:35:57;41.88;;;20.65;;
32932;SDS011;19444;50.518;10.870;2022-10-31T16:39:18;41.40;;;16.60;;
32932;SDS011;19444;50.518;10.870;2022-10-31T16:42:15;15.40;;;5.75;;
32932;SDS011;19444;50.518;10.870;2022-10-31T16:48:21;25.75;;;11.65;;
32932;SDS011;19444;50.518;10.870;2022-10-31T16:51:22;56.17;;;26.83;;
32932;SDS011;19444;50.518;10.870;2022-10-31T16:54:19;44.78;;;24.48;;
32932;SDS011;19444;50.518;10.870;2022-10-31T16:57:17;34.78;;;17.77;;
32932;SDS011;19444;50.518;10.870;2022-10-31T17:00:23;40.25;;;18.50;;
32932;SDS011;19444;50.518;10.870;2022-10-31T17:03:23;50.17;;;27.10;;
32932;SDS011;19444;50.518;10.870;2022-10-31T17:06:20;51.42;;;26.38;;
32932;SDS011;19444;50.518;10.870;2022-10-31T17:09:17;47.75;;;24.63;;
32932;SDS011;19444;50.518;10.870;2022-10-31T17:12:17;29.48;;;16.30;;
32932;SDS011;19444;50.518;10.870;2022-10-31T17:15:19;30.25;;;14.50;;
32932;SDS011;19444;50.518;10.870;2022-10-31T17:18:22;31.95;;;17.35;;
32932;SDS011;19444;50.518;10.870;2022-10-31T17:21:23;41.92;;;20.13;;
32932;SDS011;19444;50.518;10.870;2022-10-31T17:24:23;20.33;;;12.03;;
32932;SDS011;19444;50.518;10.870;2022-10-31T17:27:22;29.77;;;15.88;;
32932;SDS011;19444;50.518;10.870;2022-10-31T17:30:19;20.40;;;10.77;;
32932;SDS011;19444;50.518;10.870;2022-10-31T17:33:20;27.55;;;16.13;;
32932;SDS011;19444;50.518;10.870;2022-10-31T17:36:16;27.08;;;14.32;;
32932;SDS011;19444;50.518;10.870;2022-10-31T17:39:13;27.05;;;14.75;;
32932;SDS011;19444;50.518;10.870;2022-10-31T17:42:10;30.83;;;19.98;;
32932;SDS011;19444;50.518;10.870;2022-10-31T17:45:08;26.17;;;15.35;;
32932;SDS011;19444;50.518;10.870;2022-10-31T17:48:05;29.45;;;17.17;;
32932;SDS011;19444;50.518;10.870;2022-10-31T17:51:05;15.02;;;7.43;;
32932;SDS011;19444;50.518;10.870;2022-10-31T17:54:03;17.55;;;7.32;;
32932;SDS011;19444;50.518;10.870;2022-10-31T17:57:05;49.20;;;27.35;;
32932;SDS011;19444;50.518;10.870;2022-10-31T18:00:03;29.50;;;18.58;;
32932;SDS011;19444;50.518;10.870;2022-10-31T18:03:05;31.17;;;16.52;;
32932;SDS011;19444;50.518;10.870;2022-10-31T18:06:02;21.38;;;11.15;;
32932;SDS011;19444;50.518;10.870;2022-10-31T18:09:03;16.30;;;10.30;;
32932;SDS011;19444;50.518;10.870;2022-10-31T18:14:58;25.40;;;12.60;;
32932;SDS011;19444;50.518;10.870;2022-10-31T18:17:55;19.90;;;11.93;;
32932;SDS011;19444;50.518;10.870;2022-10-31T18:20:55;16.92;;;9.35;;
32932;SDS011;19444;50.518;10.870;2022-10-31T18:23:53;18.75;;;9.43;;
32932;SDS011;19444;50.518;10.870;2022-10-31T18:26:51;13.02;;;6.25;;
32932;SDS011;19444;50.518;10.870;2022-10-31T18:29:48;13.25;;;8.32;;
32932;SDS011;19444;50.518;10.870;2022-10-31T18:32:47;17.08;;;6.95;;
32932;SDS011;19444;50.518;10.870;2022-10-31T18:35:48;16.40;;;8.73;;
32932;SDS011;19444;50.518;10.870;2022-10-31T18:38:45;13.57;;;8.07;;
32932;SDS011;19444;50.518;10.870;2022-10-31T18:41:42;15.00;;;7.90;;
32932;SDS011;19444;50.518;10.870;2022-10-31T18:44:39;19.08;;;9.38;;
32932;SDS011;19444;50.518;10.870;2022-10-31T18:47:35;20.65;;;9.13;;
32932;SDS011;19444;50.518;10.870;2022-10-31T18:50:32;14.32;;;7.35;;
32932;SDS011;19444;50.518;10.870;2022-10-31T18:53:29;13.50;;;5.82;;
32932;SDS011;19444;50.518;10.870;2022-10-31T18:56:28;14.35;;;7.07;;
32932;SDS011;19444;50.518;10.870;2022-10-31T18:59:28;13.65;;;8.15;;
32932;SDS011;19444;50.518;10.870;2022-10-31T19:02:25;24.48;;;13.18;;
32932;SDS011;19444;50.518;10.870;2022-10-31T19:05:22;18.30;;;9.07;;
32932;SDS011;19444;50.518;10.870;2022-10-31T19:08:19;19.67;;;11.45;;
32932;SDS011;19444;50.518;10.870;2022-10-31T19:11:18;17.90;;;11.57;;
32932;SDS011;19444;50.518;10.870;2022-10-31T19:14:15;19.27;;;11.73;;
32932;SDS011;19444;50.518;10.870;2022-10-31T19:17:12;43.60;;;25.88;;
32932;SDS011;19444;50.518;10.870;2022-10-31T19:20:10;28.40;;;18.75;;
32932;SDS011;19444;50.518;10.870;2022-10-31T19:23:07;26.35;;;16.15;;
32932;SDS011;19444;50.518;10.870;2022-10-31T19:26:04;29.65;;;14.88;;
32932;SDS011;19444;50.518;10.870;2022-10-31T19:29:01;30.10;;;16.95;;
32932;SDS011;19444;50.518;10.870;2022-10-31T19:31:59;33.00;;;22.35;;
32932;SDS011;19444;50.518;10.870;2022-10-31T19:34:59;38.97;;;22.58;;
32932;SDS011;19444;50.518;10.870;2022-10-31T19:37:56;33.13;;;23.20;;
32932;SDS011;19444;50.518;10.870;2022-10-31T19:40:56;116.35;;;58.00;;
32932;SDS011;19444;50.518;10.870;2022-10-31T19:43:57;45.75;;;26.67;;
32932;SDS011;19444;50.518;10.870;2022-10-31T19:46:56;23.85;;;13.50;;
32932;SDS011;19444;50.518;10.870;2022-10-31T19:49:53;19.95;;;11.35;;